Time;durP1;ratioP1;P1;durP2;ratioP2;P2;SDS_P1;SDS_P2;PMS_P1;PMS_P2;Temp;Humidity;BMP_temperature;BMP_pressure;BME280_temperature;BME280_humidity;BME280_pressure;Samples;Min_cycle;Max_cycle;Signal;HPM_P1;HPM_P2
2022/11/10 00:01:53;;;;;;;11.75;4.15;;;9.50;99.90;;;;;;5059185;28;20091;-84
2022/11/10 00:04:19;;;;;;;15.95;4.30;;;9.60;99.90;;;;;;5092261;28;20044;-83
2022/11/10 00:06:47;;;;;;;9.65;3.92;;;9.70;99.90;;;;;;5074963;28;20484;-83
2022/11/10 00:09:13;;;;;;;9.60;3.97;;;9.60;99.90;;;;;;5058986;28;20052;-84
2022/11/10 00:11:39;;;;;;;12.85;4.40;;;9.60;99.90;;;;;;5074821;28;20564;-83
2022/11/10 00:17:05;;;;;;;14.23;4.50;;;9.60;99.90;;;;;;5064217;28;20082;-83
2022/11/10 00:19:32;;;;;;;13.70;4.60;;;9.50;99.90;;;;;;5076883;28;20043;-83
2022/11/10 00:21:58;;;;;;;13.52;4.68;;;9.60;99.90;;;;;;5058748;28;20055;-83
2022/11/10 00:24:23;;;;;;;15.32;4.50;;;9.60;99.90;;;;;;5058270;28;20044;-82
2022/11/10 00:26:49;;;;;;;13.82;4.25;;;9.50;99.90;;;;;;5041627;28;20056;-83
2022/11/10 00:29:15;;;;;;;12.35;4.22;;;9.50;99.90;;;;;;5075329;28;20052;-83
2022/11/10 00:31:41;;;;;;;15.00;5.05;;;9.50;99.90;;;;;;5074730;28;20036;-83
2022/11/10 00:34:11;;;;;;;18.45;4.93;;;9.50;99.90;;;;;;5074641;28;20048;-83
2022/11/10 00:36:37;;;;;;;17.67;4.47;;;9.50;99.90;;;;;;5058125;28;20562;-84
2022/11/10 00:39:02;;;;;;;23.58;5.13;;;9.50;99.90;;;;;;5091359;28;20043;-84
2022/11/10 00:41:28;;;;;;;16.92;5.25;;;9.50;99.90;;;;;;5057544;28;20083;-84
2022/11/10 00:43:54;;;;;;;13.35;4.72;;;9.50;99.90;;;;;;5057862;28;20048;-84
2022/11/10 00:46:19;;;;;;;16.42;5.25;;;9.50;99.90;;;;;;5058053;28;20059;-83
2022/11/10 00:48:45;;;;;;;22.45;5.63;;;9.50;99.90;;;;;;5111334;28;20206;-84
2022/11/10 00:51:29;;;;;;;12.60;5.15;;;9.50;99.90;;;;;;5099413;28;20108;-83
2022/11/10 00:53:55;;;;;;;16.30;5.73;;;9.40;99.90;;;;;;5098987;28;20028;-84
2022/11/10 00:56:40;;;;;;;13.65;5.55;;;9.50;99.90;;;;;;5080426;28;20286;-84
2022/11/10 00:59:06;;;;;;;14.98;5.53;;;10.30;99.90;;;;;;5060146;28;20067;-84
2022/11/10 01:01:32;;;;;;;14.55;5.38;;;9.50;99.90;;;;;;5090920;28;20044;-83
2022/11/10 01:03:57;;;;;;;12.90;5.43;;;9.40;99.90;;;;;;5105724;28;20059;-83
2022/11/10 01:06:23;;;;;;;19.15;6.25;;;9.40;99.90;;;;;;5111545;28;20473;-84
2022/11/10 01:08:49;;;;;;;21.35;6.97;;;9.40;99.90;;;;;;5091423;28;20074;-84
2022/11/10 01:11:16;;;;;;;16.13;5.55;;;9.40;99.90;;;;;;5075026;28;20056;-84
2022/11/10 01:13:41;;;;;;;16.73;6.22;;;9.40;99.90;;;;;;5074352;28;20052;-83
2022/11/10 01:16:11;;;;;;;17.42;6.70;;;9.40;99.90;;;;;;5057843;28;20162;-83
2022/11/10 01:18:36;;;;;;;18.10;5.53;;;9.40;99.90;;;;;;5057968;28;20067;-84
2022/11/10 01:21:02;;;;;;;22.02;6.47;;;9.30;99.90;;;;;;5074291;28;20048;-83
2022/11/10 01:23:28;;;;;;;21.23;6.43;;;9.30;99.90;;;;;;5091214;28;20101;-84
2022/11/10 01:25:58;;;;;;;14.88;6.18;;;9.30;99.90;;;;;;5074055;28;20555;-84
2022/11/10 01:28:24;;;;;;;22.85;6.45;;;9.30;99.90;;;;;;5091506;28;20097;-84
2022/11/10 01:30:56;;;;;;;15.73;6.25;;;9.30;99.90;;;;;;5090692;28;20055;-84
2022/11/10 01:33:21;;;;;;;17.42;6.28;;;9.30;99.90;;;;;;5092385;28;20048;-84
2022/11/10 01:35:47;;;;;;;18.95;6.20;;;9.20;99.90;;;;;;5091068;28;20054;-84
2022/11/10 01:38:13;;;;;;;19.88;7.28;;;9.60;99.90;;;;;;5092045;28;20127;-84
2022/11/10 01:40:38;;;;;;;23.35;6.57;;;9.30;99.90;;;;;;5091069;28;20123;-84
2022/11/10 01:43:04;;;;;;;23.90;6.63;;;9.30;99.90;;;;;;5091269;28;20051;-83
2022/11/10 01:45:48;;;;;;;21.33;7.43;;;9.30;99.90;;;;;;5074978;28;20052;-83
2022/11/10 01:48:28;;;;;;;15.80;6.60;;;9.30;99.90;;;;;;5092068;28;20096;-84
2022/11/10 01:50:54;;;;;;;23.27;6.95;;;9.30;99.90;;;;;;5058588;28;20058;-83
2022/11/10 01:53:24;;;;;;;21.73;7.90;;;9.30;99.90;;;;;;5057975;28;20052;-84
2022/11/10 01:55:49;;;;;;;26.23;7.93;;;9.30;99.90;;;;;;5090924;28;20121;-84
2022/11/10 01:58:16;;;;;;;21.15;8.30;;;9.30;99.90;;;;;;5061493;28;20492;-84
2022/11/10 02:00:42;;;;;;;21.25;7.65;;;9.30;99.90;;;;;;5060893;28;20439;-83
2022/11/10 02:03:38;;;;;;;22.80;7.78;;;9.30;99.90;;;;;;5061904;28;20052;-84
2022/11/10 02:06:03;;;;;;;16.30;7.18;;;9.20;99.90;;;;;;5067002;28;20062;-83
2022/11/10 02:08:29;;;;;;;24.20;7.45;;;9.20;99.90;;;;;;5102537;28;20044;-83
2022/11/10 02:10:54;;;;;;;12.73;6.25;;;9.20;99.90;;;;;;5080985;28;20111;-83
2022/11/10 02:13:20;;;;;;;23.23;7.93;;;9.20;99.90;;;;;;5078103;28;20642;-84
2022/11/10 02:15:46;;;;;;;26.58;7.68;;;9.20;99.90;;;;;;5094183;28;20078;-84
2022/11/10 02:18:12;;;;;;;20.70;8.05;;;9.20;99.90;;;;;;5077765;28;20399;-83
2022/11/10 02:20:37;;;;;;;18.00;7.35;;;9.20;99.90;;;;;;5076928;28;20067;-83
2022/11/10 02:23:28;;;;;;;21.02;7.57;;;9.20;99.90;;;;;;5090648;28;20044;-84
2022/11/10 02:25:54;;;;;;;18.23;7.43;;;9.20;99.90;;;;;;5092167;28;20063;-85
2022/11/10 02:28:19;;;;;;;22.10;8.52;;;9.20;99.90;;;;;;5078131;28;20052;-83
2022/11/10 02:30:45;;;;;;;23.50;7.35;;;9.20;99.90;;;;;;5077304;28;20075;-83
2022/11/10 02:33:10;;;;;;;20.38;7.07;;;9.20;99.90;;;;;;5094516;28;20056;-82
2022/11/10 02:35:36;;;;;;;22.98;6.97;;;9.20;99.90;;;;;;5095591;28;20110;-83
2022/11/10 02:38:02;;;;;;;16.27;6.57;;;9.20;99.90;;;;;;5077273;28;20133;-83
2022/11/10 02:40:27;;;;;;;20.23;6.90;;;9.30;99.90;;;;;;5060396;28;20129;-83
2022/11/10 02:42:53;;;;;;;17.23;6.88;;;9.30;99.90;;;;;;5093514;28;20078;-82
2022/11/10 02:45:19;;;;;;;19.33;6.53;;;9.30;99.90;;;;;;5094210;28;20044;-82
2022/11/10 02:47:44;;;;;;;17.80;6.00;;;9.30;99.90;;;;;;5094807;28;20054;-83
2022/11/10 02:50:10;;;;;;;21.00;5.95;;;9.30;99.90;;;;;;5076964;28;20101;-83
2022/11/10 02:52:36;;;;;;;11.35;4.97;;;9.30;99.90;;;;;;5077587;28;20051;-83
2022/11/10 02:55:01;;;;;;;15.73;6.07;;;9.30;99.90;;;;;;5076650;28;20048;-83
2022/11/10 02:57:27;;;;;;;17.63;5.90;;;9.30;99.90;;;;;;5093797;28;20048;-83
2022/11/10 02:59:52;;;;;;;26.45;6.75;;;9.30;99.90;;;;;;5076320;28;20056;-83
2022/11/10 03:02:18;;;;;;;14.75;5.90;;;9.40;99.90;;;;;;5059921;28;20127;-83
2022/11/10 03:04:44;;;;;;;16.08;5.35;;;9.30;99.90;;;;;;5076873;28;20052;-82
2022/11/10 03:07:09;;;;;;;19.55;6.18;;;9.30;99.90;;;;;;5093850;28;20084;-83
2022/11/10 03:09:35;;;;;;;14.20;5.18;;;9.20;99.90;;;;;;5094686;28;20409;-83
2022/11/10 03:12:00;;;;;;;21.02;5.82;;;9.20;99.90;;;;;;5093596;28;20048;-83
2022/11/10 03:14:26;;;;;;;16.88;5.78;;;9.20;99.90;;;;;;5093382;28;20044;-83
2022/11/10 03:16:52;;;;;;;20.10;6.20;;;9.20;99.90;;;;;;5076339;28;20040;-83
2022/11/10 03:19:18;;;;;;;21.40;5.90;;;9.30;99.90;;;;;;5093233;28;20076;-83
2022/11/10 03:21:43;;;;;;;17.20;5.93;;;9.30;99.90;;;;;;5095009;28;20028;-82
2022/11/10 03:24:09;;;;;;;14.35;6.38;;;9.30;99.90;;;;;;5101075;28;20082;-82
2022/11/10 03:26:35;;;;;;;18.35;6.10;;;9.40;99.90;;;;;;5118129;28;20067;-82
2022/11/10 03:29:00;;;;;;;13.15;5.75;;;9.40;99.90;;;;;;5083290;28;20129;-83
2022/11/10 03:31:26;;;;;;;19.77;6.70;;;9.40;99.90;;;;;;5093609;28;20047;-84
2022/11/10 03:33:52;;;;;;;21.50;6.47;;;9.40;99.90;;;;;;5075681;28;20109;-83
2022/11/10 03:36:17;;;;;;;18.20;6.18;;;9.30;99.90;;;;;;5092695;28;20054;-83
2022/11/10 03:38:43;;;;;;;18.55;6.50;;;9.30;99.90;;;;;;5076065;28;20048;-83
2022/11/10 03:41:08;;;;;;;19.20;6.40;;;9.30;99.90;;;;;;5098343;28;20116;-83
2022/11/10 03:43:34;;;;;;;17.55;6.60;;;9.30;99.90;;;;;;5082240;28;20079;-83
2022/11/10 03:46:00;;;;;;;23.10;6.45;;;9.40;99.90;;;;;;5100254;28;20066;-83
2022/11/10 03:48:25;;;;;;;14.98;6.07;;;9.30;99.90;;;;;;5076048;28;20362;-83
2022/11/10 03:50:51;;;;;;;14.20;7.13;;;9.40;99.90;;;;;;5092628;28;20374;-83
2022/11/10 03:53:17;;;;;;;28.98;9.18;;;9.30;99.90;;;;;;5092804;28;20135;-83
2022/11/10 03:55:42;;;;;;;21.38;7.40;;;9.30;99.90;;;;;;5092769;28;20094;-83
2022/11/10 03:58:08;;;;;;;20.52;6.75;;;9.30;99.90;;;;;;5075285;28;20048;-83
2022/11/10 04:00:34;;;;;;;22.13;7.63;;;9.30;99.90;;;;;;5074953;28;20059;-83
2022/11/10 04:02:59;;;;;;;18.23;7.82;;;9.20;99.90;;;;;;5075339;28;20062;-83
2022/11/10 04:10:57;;;;;;;20.15;7.90;;;9.30;99.90;;;;;;5065093;28;20059;-83
2022/11/10 04:16:07;;;;;;;23.33;8.50;;;9.30;99.90;;;;;;5077849;28;20040;-83
2022/11/10 04:18:33;;;;;;;26.23;7.70;;;9.30;99.90;;;;;;5074669;28;20047;-83
2022/11/10 04:21:00;;;;;;;15.95;7.63;;;9.30;99.90;;;;;;5091773;28;20040;-82
2022/11/10 04:23:27;;;;;;;25.55;8.25;;;9.30;99.90;;;;;;5076108;28;20055;-83
2022/11/10 04:28:53;;;;;;;22.40;9.00;;;9.30;99.90;;;;;;5077994;28;20060;-83
2022/11/10 04:31:20;;;;;;;23.95;8.77;;;9.30;99.90;;;;;;5075739;28;20056;-83
2022/11/10 04:33:46;;;;;;;24.40;9.38;;;9.30;99.90;;;;;;5058162;28;20047;-83
2022/11/10 04:36:13;;;;;;;29.35;9.23;;;9.30;99.90;;;;;;5058422;28;20399;-83
2022/11/10 04:38:39;;;;;;;24.42;8.80;;;9.30;99.90;;;;;;5117083;28;20050;-82
2022/11/10 04:41:05;;;;;;;23.98;8.27;;;9.30;99.90;;;;;;5065932;28;20044;-82
2022/11/10 04:43:30;;;;;;;23.65;9.15;;;9.20;99.90;;;;;;5114820;28;20036;-83
2022/11/10 04:45:56;;;;;;;29.02;9.52;;;9.30;99.90;;;;;;5091512;28;20048;-82
2022/11/10 04:48:22;;;;;;;27.73;9.43;;;9.20;99.90;;;;;;5075326;28;20062;-83
2022/11/10 04:50:47;;;;;;;21.65;9.80;;;9.30;99.90;;;;;;5094993;28;20055;-83
2022/11/10 04:53:13;;;;;;;21.25;8.57;;;9.30;99.90;;;;;;5112481;28;20126;-83
2022/11/10 04:55:40;;;;;;;22.58;9.75;;;9.30;99.90;;;;;;5111851;28;20047;-83
2022/11/10 04:58:06;;;;;;;24.30;9.75;;;9.30;99.90;;;;;;5077505;28;20040;-83
2022/11/10 05:00:32;;;;;;;32.45;9.70;;;9.30;99.90;;;;;;5118819;28;20079;-83
2022/11/10 05:02:59;;;;;;;27.67;10.02;;;9.40;99.90;;;;;;5101042;28;20056;-83
2022/11/10 05:05:24;;;;;;;28.08;10.77;;;9.50;99.90;;;;;;5096682;28;20108;-83
2022/11/10 05:07:50;;;;;;;29.13;9.25;;;9.50;99.90;;;;;;5097435;28;20044;-83
2022/11/10 05:10:16;;;;;;;28.88;10.13;;;9.50;99.90;;;;;;5097798;28;20138;-82
2022/11/10 05:12:41;;;;;;;25.27;9.40;;;9.50;99.90;;;;;;5079544;28;20079;-83
2022/11/10 05:15:08;;;;;;;30.77;10.07;;;9.50;99.90;;;;;;5094836;28;20043;-83
2022/11/10 05:17:33;;;;;;;25.98;9.02;;;9.50;99.90;;;;;;5094754;28;20120;-82
2022/11/10 05:19:59;;;;;;;22.08;9.45;;;9.50;99.90;;;;;;5111337;28;20479;-82
2022/11/10 05:22:25;;;;;;;29.48;9.50;;;9.60;99.90;;;;;;5111638;28;20079;-82
2022/11/10 05:24:50;;;;;;;30.27;10.70;;;9.50;99.90;;;;;;5077895;28;20087;-83
2022/11/10 05:27:16;;;;;;;27.27;10.02;;;9.60;99.90;;;;;;5094186;28;20058;-83
2022/11/10 05:29:42;;;;;;;28.20;9.38;;;9.60;99.90;;;;;;5111571;28;20077;-83
2022/11/10 05:32:07;;;;;;;28.15;10.93;;;9.50;99.90;;;;;;5097554;28;20079;-83
2022/11/10 05:34:33;;;;;;;24.08;9.45;;;9.50;99.90;;;;;;5121068;28;20048;-83
2022/11/10 05:36:58;;;;;;;30.90;9.43;;;9.50;99.90;;;;;;5082320;28;20051;-83
2022/11/10 05:39:24;;;;;;;25.25;10.00;;;9.60;99.90;;;;;;5098694;28;20052;-83
2022/11/10 05:41:50;;;;;;;30.02;9.38;;;9.60;99.90;;;;;;5098806;28;20051;-83
2022/11/10 05:44:15;;;;;;;28.67;9.80;;;9.60;99.90;;;;;;5115357;28;20136;-83
2022/11/10 05:46:41;;;;;;;30.73;10.40;;;9.60;99.90;;;;;;5098777;28;20058;-83
2022/11/10 05:49:07;;;;;;;32.42;10.05;;;9.60;99.90;;;;;;5116065;28;20044;-84
2022/11/10 05:51:33;;;;;;;28.60;9.70;;;9.60;99.90;;;;;;5081680;28;20043;-83
2022/11/10 05:53:58;;;;;;;28.13;9.75;;;9.60;99.90;;;;;;5100934;28;20047;-83
2022/11/10 05:56:24;;;;;;;22.80;9.55;;;9.60;99.90;;;;;;5122876;28;20035;-82
2022/11/10 05:58:50;;;;;;;30.00;10.07;;;9.60;99.90;;;;;;5122985;28;20062;-82
2022/11/10 06:01:15;;;;;;;29.55;10.02;;;9.60;99.90;;;;;;5124994;28;20048;-84
2022/11/10 06:03:41;;;;;;;28.58;9.27;;;9.60;99.90;;;;;;5098538;28;20048;-83
2022/11/10 06:06:07;;;;;;;27.75;9.40;;;9.60;99.90;;;;;;5088141;28;20119;-85
2022/11/10 06:08:33;;;;;;;28.70;10.02;;;9.70;99.90;;;;;;5088542;28;20483;-85
2022/11/10 06:10:58;;;;;;;29.67;10.30;;;9.60;99.90;;;;;;5073379;28;20048;-84
2022/11/10 06:13:24;;;;;;;25.05;10.07;;;9.60;99.90;;;;;;5069533;28;20063;-84
2022/11/10 06:15:50;;;;;;;30.48;10.18;;;9.60;99.90;;;;;;5088365;28;20046;-85
2022/11/10 06:18:16;;;;;;;28.75;10.02;;;9.70;99.90;;;;;;5087573;28;20496;-85
2022/11/10 06:20:41;;;;;;;21.65;9.75;;;9.70;99.90;;;;;;5120270;28;20033;-84
2022/11/10 06:23:10;;;;;;;26.48;10.25;;;9.70;99.90;;;;;;5108772;28;20067;-84
2022/11/10 06:25:37;;;;;;;31.38;10.10;;;9.80;99.90;;;;;;5105212;28;20056;-83
2022/11/10 06:28:03;;;;;;;29.02;11.15;;;9.70;99.90;;;;;;5064935;28;20051;-85
2022/11/10 06:30:29;;;;;;;34.67;10.30;;;9.70;99.90;;;;;;5097740;28;20047;-84
2022/11/10 06:32:55;;;;;;;24.13;9.98;;;9.80;99.90;;;;;;5064622;28;20061;-84
2022/11/10 06:35:20;;;;;;;20.17;9.07;;;9.80;99.90;;;;;;5114023;28;20150;-83
2022/11/10 06:37:58;;;;;;;32.00;9.98;;;9.80;99.90;;;;;;5113679;28;20059;-83
2022/11/10 06:40:24;;;;;;;25.65;9.50;;;9.80;99.90;;;;;;5114138;28;20104;-83
2022/11/10 06:42:50;;;;;;;22.67;8.32;;;9.80;99.90;;;;;;5114249;28;20047;-84
2022/11/10 06:45:15;;;;;;;28.48;9.75;;;9.80;99.90;;;;;;5114143;28;20051;-83
2022/11/10 06:47:41;;;;;;;31.73;11.13;;;9.80;99.90;;;;;;5114486;28;20055;-83
2022/11/10 06:50:07;;;;;;;29.65;10.52;;;9.70;99.90;;;;;;5080730;28;20051;-84
2022/11/10 06:52:33;;;;;;;28.42;10.93;;;9.70;99.90;;;;;;5114030;28;20044;-83
2022/11/10 06:54:58;;;;;;;29.30;9.85;;;9.70;99.90;;;;;;5097370;28;20048;-83
2022/11/10 06:57:24;;;;;;;24.85;10.38;;;9.70;99.90;;;;;;5113960;28;20382;-83
2022/11/10 06:59:49;;;;;;;28.17;10.45;;;9.70;99.90;;;;;;5092467;28;20055;-83
2022/11/10 07:02:15;;;;;;;29.83;9.98;;;9.70;99.90;;;;;;5097106;28;20054;-83
2022/11/10 07:04:43;;;;;;;24.75;9.77;;;9.70;99.90;;;;;;5096732;28;20058;-83
2022/11/10 07:07:10;;;;;;;20.95;8.70;;;9.70;99.90;;;;;;5114978;28;20058;-83
2022/11/10 07:09:36;;;;;;;28.27;10.20;;;9.70;99.90;;;;;;5073235;27;20032;-83
2022/11/10 07:12:03;;;;;;;27.73;9.40;;;9.80;99.90;;;;;;5138966;27;20032;-82
2022/11/10 07:14:28;;;;;;;25.95;9.77;;;10.00;99.90;;;;;;5121048;28;20048;-82
2022/11/10 07:16:54;;;;;;;25.70;9.63;;;9.90;99.90;;;;;;5108576;28;20051;-83
2022/11/10 07:19:19;;;;;;;22.48;10.13;;;10.00;99.90;;;;;;5060195;28;20083;-84
2022/11/10 07:21:45;;;;;;;25.90;9.75;;;10.10;99.90;;;;;;5059000;28;20059;-83
2022/11/10 07:24:11;;;;;;;26.30;9.38;;;10.00;99.90;;;;;;5075697;28;20048;-83
2022/11/10 07:26:36;;;;;;;23.70;9.50;;;10.10;99.90;;;;;;5075764;28;20068;-83
2022/11/10 07:29:05;;;;;;;26.30;9.90;;;10.20;99.90;;;;;;5076490;28;20048;-83
2022/11/10 07:31:31;;;;;;;30.33;9.60;;;10.20;99.90;;;;;;5058841;28;20050;-83
2022/11/10 07:33:56;;;;;;;21.77;8.55;;;10.30;99.90;;;;;;5075658;28;20048;-83
2022/11/10 07:36:22;;;;;;;27.90;8.65;;;10.40;99.90;;;;;;5074659;28;20074;-83
2022/11/10 07:38:47;;;;;;;18.70;8.57;;;10.40;99.90;;;;;;5097296;28;20497;-82
2022/11/10 07:41:13;;;;;;;25.00;8.63;;;10.50;99.90;;;;;;5080997;28;20066;-83
2022/11/10 07:43:39;;;;;;;24.45;8.95;;;10.50;99.90;;;;;;5054182;28;20044;-83
2022/11/10 07:46:04;;;;;;;25.35;8.98;;;10.50;99.90;;;;;;5075837;28;20044;-83
2022/11/10 07:48:30;;;;;;;20.98;9.25;;;10.40;99.90;;;;;;5075242;28;20476;-83
2022/11/10 07:50:56;;;;;;;26.13;9.27;;;10.40;99.90;;;;;;5058251;28;20097;-83
2022/11/10 07:53:21;;;;;;;22.77;8.23;;;10.40;99.90;;;;;;5092470;28;20066;-84
2022/11/10 07:55:47;;;;;;;20.65;8.70;;;10.40;99.90;;;;;;5058699;28;20138;-83
2022/11/10 07:58:14;;;;;;;25.10;8.43;;;10.40;99.90;;;;;;5026034;28;20051;-83
2022/11/10 08:00:40;;;;;;;20.17;8.55;;;10.50;99.90;;;;;;5041077;28;20056;-83
2022/11/10 08:03:16;;;;;;;27.70;9.75;;;10.50;99.90;;;;;;5041853;28;20052;-84
2022/11/10 08:05:42;;;;;;;21.52;9.63;;;10.50;99.90;;;;;;5058588;28;20052;-84
2022/11/10 08:08:08;;;;;;;26.75;8.75;;;10.50;99.90;;;;;;5075144;28;20710;-83
2022/11/10 08:10:34;;;;;;;19.63;8.85;;;10.40;99.90;;;;;;5058259;28;20055;-83
2022/11/10 08:13:02;;;;;;;19.38;8.98;;;10.50;99.90;;;;;;5042276;28;20090;-83
2022/11/10 08:15:28;;;;;;;28.08;9.75;;;10.50;99.90;;;;;;5058025;28;20476;-83
2022/11/10 08:18:07;;;;;;;22.10;8.60;;;10.50;99.90;;;;;;5074844;28;20055;-83
2022/11/10 08:20:33;;;;;;;22.42;8.95;;;9.70;99.90;;;;;;5075828;28;20069;-83
2022/11/10 08:23:00;;;;;;;22.27;9.05;;;10.50;99.90;;;;;;5042670;28;20051;-85
2022/11/10 08:25:26;;;;;;;27.67;8.75;;;10.50;99.90;;;;;;5105783;28;20034;-83
2022/11/10 08:28:09;;;;;;;23.15;9.75;;;10.50;99.90;;;;;;5085639;28;20052;-84
2022/11/10 08:30:35;;;;;;;18.55;9.70;;;10.60;99.90;;;;;;5097345;28;20074;-81
2022/11/10 08:33:01;;;;;;;24.40;9.88;;;10.60;99.90;;;;;;5080873;28;20394;-84
2022/11/10 08:35:28;;;;;;;21.88;9.73;;;10.60;99.90;;;;;;5082149;28;20043;-84
2022/11/10 08:37:54;;;;;;;29.83;10.50;;;10.90;99.90;;;;;;5068628;28;20040;-84
2022/11/10 08:40:20;;;;;;;25.23;10.05;;;11.00;99.90;;;;;;5065898;28;20051;-83
2022/11/10 08:42:46;;;;;;;21.45;9.52;;;11.20;99.90;;;;;;5082714;28;20035;-84
2022/11/10 08:45:12;;;;;;;19.00;9.10;;;11.40;99.90;;;;;;5066557;28;20051;-84
2022/11/10 08:47:38;;;;;;;19.45;9.60;;;11.60;99.90;;;;;;5049658;28;20055;-84
2022/11/10 08:50:05;;;;;;;21.08;9.40;;;11.80;99.90;;;;;;5069162;28;20045;-84
2022/11/10 08:52:31;;;;;;;22.30;9.57;;;12.20;99.90;;;;;;5083426;28;20052;-85
2022/11/10 08:54:56;;;;;;;19.67;9.20;;;12.60;99.90;;;;;;5087559;28;20462;-84
2022/11/10 08:57:22;;;;;;;20.40;8.52;;;12.90;99.90;;;;;;5072617;28;20467;-85
2022/11/10 08:59:48;;;;;;;19.88;8.18;;;12.80;99.90;;;;;;5095127;28;20086;-84
2022/11/10 09:02:14;;;;;;;17.88;8.13;;;12.80;99.90;;;;;;5100167;28;20043;-85
2022/11/10 09:04:39;;;;;;;22.33;8.43;;;12.50;99.90;;;;;;5094859;28;20043;-83
2022/11/10 09:07:05;;;;;;;16.98;8.15;;;12.30;99.90;;;;;;5112248;28;20092;-83
2022/11/10 09:09:31;;;;;;;20.85;8.77;;;12.20;99.90;;;;;;5093952;28;20048;-84
2022/11/10 09:11:56;;;;;;;18.70;8.75;;;12.00;99.90;;;;;;5093819;28;20040;-84
2022/11/10 09:14:22;;;;;;;24.83;10.20;;;12.10;99.90;;;;;;5103933;28;20040;-83
2022/11/10 09:16:48;;;;;;;17.85;8.57;;;12.20;99.90;;;;;;5082227;28;20117;-83
2022/11/10 09:19:13;;;;;;;19.42;8.32;;;12.30;99.90;;;;;;5069690;28;20118;-83
2022/11/10 09:21:39;;;;;;;19.38;8.32;;;12.20;99.90;;;;;;5062641;28;20149;-83
2022/11/10 09:24:05;;;;;;;22.08;8.52;;;12.20;99.90;;;;;;5097070;28;20035;-84
2022/11/10 09:26:31;;;;;;;19.10;8.30;;;12.10;99.90;;;;;;5086714;28;20044;-82
2022/11/10 09:28:56;;;;;;;22.20;7.50;;;12.20;99.90;;;;;;5068482;28;20143;-84
2022/11/10 09:31:22;;;;;;;19.63;7.68;;;12.20;99.90;;;;;;5090989;28;20043;-83
2022/11/10 09:33:48;;;;;;;23.40;8.50;;;12.30;99.90;;;;;;5086042;28;20036;-84
2022/11/10 09:36:13;;;;;;;21.90;7.95;;;12.50;99.90;;;;;;5105208;28;20118;-83
2022/11/10 09:38:39;;;;;;;19.02;7.32;;;12.70;99.90;;;;;;5099147;28;20036;-84
2022/11/10 09:41:06;;;;;;;16.58;7.25;;;12.70;99.90;;;;;;5087475;28;20036;-83
2022/11/10 09:44:00;;;;;;;17.48;6.95;;;12.80;99.90;;;;;;5088664;28;20028;-83
2022/11/10 09:46:34;;;;;;;25.50;8.45;;;12.70;99.90;;;;;;5122345;28;20099;-83
2022/11/10 09:49:22;;;;;;;17.92;6.45;;;12.90;99.90;;;;;;5068555;28;20079;-84
2022/11/10 09:51:48;;;;;;;23.80;6.65;;;13.30;99.90;;;;;;5064898;28;20036;-83
2022/11/10 09:55:03;;;;;;;25.20;6.85;;;13.30;99.90;;;;;;5097595;28;20055;-82
2022/11/10 09:57:29;;;;;;;20.60;5.90;;;13.40;99.90;;;;;;5039635;28;20107;-84
2022/11/10 09:59:54;;;;;;;17.85;7.00;;;13.50;99.90;;;;;;5059466;28;20483;-83
2022/11/10 10:02:33;;;;;;;21.38;6.13;;;13.30;99.90;;;;;;5084784;28;20056;-86
2022/11/10 10:05:34;;;;;;;18.95;6.50;;;13.40;99.90;;;;;;5085978;28;20097;-86
2022/11/10 10:08:01;;;;;;;18.13;6.85;;;13.20;99.90;;;;;;5046731;28;20622;-85
2022/11/10 10:10:46;;;;;;;17.17;6.03;;;13.30;99.90;;;;;;5082690;28;20082;-85
2022/11/10 10:14:02;;;;;;;15.23;5.82;;;13.30;99.90;;;;;;5073553;28;21045;-85
2022/11/10 10:17:23;;;;;;;20.60;6.35;;;13.30;99.90;;;;;;5086939;28;20062;-84
2022/11/10 10:20:17;;;;;;;16.05;6.18;;;13.40;99.90;;;;;;5025464;28;20055;-83
2022/11/10 10:23:03;;;;;;;18.60;6.38;;;13.40;99.90;;;;;;5086784;28;20082;-85
2022/11/10 10:25:28;;;;;;;18.77;7.30;;;13.30;99.90;;;;;;5094608;28;20121;-85
2022/11/10 10:28:05;;;;;;;21.35;6.85;;;13.40;99.90;;;;;;5063959;28;20468;-85
2022/11/10 10:30:30;;;;;;;23.80;7.47;;;13.40;99.90;;;;;;5058069;28;20050;-84
2022/11/10 10:32:59;;;;;;;20.55;7.65;;;13.40;99.90;;;;;;5074964;28;20040;-84
2022/11/10 10:35:25;;;;;;;23.67;9.00;;;13.50;99.90;;;;;;5071126;28;20396;-84
2022/11/10 10:37:53;;;;;;;26.15;7.57;;;13.50;99.90;;;;;;5067519;28;20040;-86
2022/11/10 10:40:20;;;;;;;19.88;7.35;;;13.50;99.90;;;;;;5068582;28;20071;-84
2022/11/10 10:42:46;;;;;;;19.10;8.00;;;13.60;99.90;;;;;;5066903;28;20387;-83
2022/11/10 10:45:12;;;;;;;25.25;7.45;;;13.60;99.90;;;;;;5065887;28;20040;-83
2022/11/10 10:47:38;;;;;;;18.13;6.82;;;13.60;99.90;;;;;;5094064;28;20043;-86
2022/11/10 10:50:22;;;;;;;21.40;6.15;;;13.60;99.90;;;;;;5042967;28;20055;-85
2022/11/10 10:53:20;;;;;;;19.38;5.97;;;13.50;99.90;;;;;;5093355;28;20048;-86
2022/11/10 10:55:47;;;;;;;17.98;6.38;;;13.50;99.90;;;;;;5076754;28;20056;-86
2022/11/10 10:58:20;;;;;;;26.58;5.90;;;13.60;99.90;;;;;;5093604;28;20035;-84
2022/11/10 11:00:47;;;;;;;22.38;5.32;;;13.60;99.90;;;;;;5099560;28;20050;-85
2022/11/10 11:03:27;;;;;;;17.27;4.90;;;13.60;99.90;;;;;;5064793;28;20044;-86
2022/11/10 11:06:04;;;;;;;18.20;5.20;;;13.70;99.90;;;;;;5094866;28;20119;-86
2022/11/10 11:08:30;;;;;;;20.95;5.15;;;13.80;99.90;;;;;;5080945;28;20059;-86
2022/11/10 11:10:56;;;;;;;14.45;4.32;;;13.90;99.90;;;;;;5066426;28;20724;-86
2022/11/10 11:13:22;;;;;;;17.75;4.25;;;14.00;99.90;;;;;;5068631;28;20052;-86
2022/11/10 11:16:02;;;;;;;17.58;4.05;;;14.00;99.90;;;;;;5085822;28;20040;-86
2022/11/10 11:18:29;;;;;;;17.58;4.40;;;14.10;99.90;;;;;;5074632;28;20568;-85
2022/11/10 11:21:07;;;;;;;14.48;2.70;;;14.00;99.90;;;;;;5086644;28;20118;-85
2022/11/10 11:23:44;;;;;;;17.15;3.70;;;14.00;99.90;;;;;;5087978;28;20039;-86
2022/11/10 11:26:43;;;;;;;11.20;2.80;;;14.00;99.90;;;;;;5086229;28;20059;-86
2022/11/10 11:29:30;;;;;;;15.98;3.42;;;13.90;99.90;;;;;;5103038;28;20047;-86
2022/11/10 11:32:19;;;;;;;18.65;3.20;;;13.90;99.90;;;;;;5074107;28;20051;-86
2022/11/10 11:35:03;;;;;;;18.48;2.92;;;13.90;99.90;;;;;;5081175;28;20050;-86
2022/11/10 11:37:35;;;;;;;;;;;14.00;99.90;;;;;;5092756;28;20049;-84
2022/11/10 11:40:38;;;;;;;9.40;2.80;;;14.00;99.90;;;;;;5098964;28;20371;-86
2022/11/10 11:43:12;;;;;;;16.10;3.15;;;14.00;99.90;;;;;;5096656;28;20058;-84
2022/11/10 11:45:44;;;;;;;14.55;2.83;;;14.00;99.90;;;;;;5074276;28;20039;-87
2022/11/10 11:48:22;;;;;;;11.02;2.90;;;14.10;99.90;;;;;;5073423;28;20052;-86
2022/11/10 11:50:50;;;;;;;13.05;3.35;;;14.20;99.90;;;;;;5059390;28;20067;-87
2022/11/10 11:53:43;;;;;;;13.70;2.67;;;14.10;99.90;;;;;;5111376;28;20400;-86
2022/11/10 11:56:19;;;;;;;13.23;3.88;;;14.10;99.90;;;;;;5063284;28;20079;-88
2022/11/10 11:59:06;;;;;;;10.55;2.40;;;14.10;99.90;;;;;;5094480;28;20043;-86
2022/11/10 12:01:53;;;;;;;12.63;3.05;;;14.20;99.90;;;;;;5093762;28;20048;-87
2022/11/10 12:04:28;;;;;;;11.52;4.35;;;14.30;99.90;;;;;;5087593;28;20526;-87
2022/11/10 12:07:21;;;;;;;16.52;3.97;;;14.30;99.90;;;;;;5091033;28;20067;-86
2022/11/10 12:09:49;;;;;;;11.68;2.63;;;14.30;99.90;;;;;;5077565;28;20048;-85
2022/11/10 12:12:24;;;;;;;14.20;3.40;;;14.30;99.90;;;;;;5075579;28;20181;-86
2022/11/10 12:15:09;;;;;;;12.52;2.70;;;14.40;99.90;;;;;;5098080;28;20097;-85
2022/11/10 12:17:58;;;;;;;16.20;3.78;;;14.30;99.90;;;;;;5082954;28;20095;-85
2022/11/10 12:20:58;;;;;;;15.65;2.80;;;14.40;99.90;;;;;;5074546;28;20044;-86
2022/11/10 12:23:42;;;;;;;12.27;2.47;;;14.40;99.90;;;;;;5092332;28;20059;-87
2022/11/10 12:26:30;;;;;;;19.77;3.35;;;14.30;99.90;;;;;;5092124;28;20496;-86
2022/11/10 12:29:02;;;;;;;14.20;2.83;;;14.30;99.90;;;;;;5075120;28;20044;-86
2022/11/10 12:31:28;;;;;;;12.88;2.42;;;14.30;99.90;;;;;;5075645;28;20211;-86
2022/11/10 12:34:23;;;;;;;16.08;2.90;;;14.30;99.90;;;;;;5061949;28;20059;-84
2022/11/10 12:36:49;;;;;;;18.00;2.90;;;14.30;99.90;;;;;;5084270;28;20143;-87
2022/11/10 12:39:23;;;;;;;15.52;2.45;;;14.30;99.90;;;;;;5057787;28;20568;-87
2022/11/10 12:41:57;;;;;;;10.32;2.35;;;14.30;99.90;;;;;;5041257;28;20067;-86
2022/11/10 12:44:36;;;;;;;12.77;2.42;;;14.30;99.90;;;;;;5041645;28;20056;-87
2022/11/10 12:47:05;;;;;;;12.98;2.85;;;14.30;99.90;;;;;;5082279;28;20119;-87
2022/11/10 12:49:40;;;;;;;11.68;2.40;;;14.40;99.90;;;;;;5090505;28;20085;-88
2022/11/10 12:52:15;;;;;;;9.68;2.35;;;14.40;99.90;;;;;;5093703;28;20096;-89
2022/11/10 12:54:43;;;;;;;15.82;2.70;;;14.40;99.90;;;;;;5079537;28;20487;-88
2022/11/10 12:57:16;;;;;;;13.00;2.38;;;14.40;99.90;;;;;;5098806;28;20036;-87
2022/11/10 13:00:10;;;;;;;12.75;2.70;;;14.40;99.90;;;;;;5106150;28;20634;-91
2022/11/10 13:02:41;;;;;;;13.88;2.40;;;14.40;99.90;;;;;;5061313;28;20043;-88
2022/11/10 13:05:13;;;;;;;13.82;2.40;;;14.40;99.90;;;;;;5101172;28;20398;-87
2022/11/10 13:07:49;;;;;;;11.10;2.55;;;14.40;99.90;;;;;;5102578;28;20476;-88